createdAt,value
2017-08-26T00:00:45.294Z,3.70
2017-08-26T00:03:12.967Z,4.40
2017-08-26T00:06:39.736Z,3.73
2017-08-26T00:09:07.458Z,3.90
2017-08-26T00:11:35.879Z,4.47
2017-08-26T00:14:03.665Z,4.27
2017-08-26T00:16:31.469Z,3.47
2017-08-26T00:18:59.296Z,3.70
2017-08-26T00:21:27.168Z,4.00
2017-08-26T00:23:54.928Z,3.80
2017-08-26T00:26:22.696Z,3.70
2017-08-26T00:28:50.564Z,3.70
2017-08-26T00:31:18.331Z,4.07
2017-08-26T00:33:46.197Z,3.13
2017-08-26T00:36:13.959Z,4.17
2017-08-26T00:38:41.658Z,3.63
2017-08-26T00:41:10.131Z,4.40
2017-08-26T00:43:37.972Z,4.67
2017-08-26T00:46:05.838Z,4.07
2017-08-26T00:48:33.703Z,4.60
2017-08-26T00:51:01.678Z,4.10
2017-08-26T00:53:29.639Z,3.97
2017-08-26T00:55:57.520Z,4.30
2017-08-26T00:58:25.374Z,3.70
2017-08-26T01:00:53.244Z,4.40
2017-08-26T01:03:20.953Z,3.93
2017-08-26T01:05:48.777Z,3.10
2017-08-26T01:08:16.547Z,3.37
2017-08-26T01:10:44.499Z,3.53
2017-08-26T01:13:12.277Z,3.63
2017-08-26T01:15:40.137Z,3.43
2017-08-26T01:18:08.008Z,4.00
2017-08-26T01:20:35.774Z,3.60
2017-08-26T01:23:03.642Z,3.67
2017-08-26T01:25:31.406Z,3.97
2017-08-26T01:27:59.169Z,3.40
2017-08-26T01:30:27.036Z,3.40
2017-08-26T01:32:54.699Z,3.37
2017-08-26T01:35:22.422Z,3.67
2017-08-26T01:37:50.232Z,4.60
2017-08-26T01:40:17.998Z,4.03
2017-08-26T01:42:45.862Z,3.00
2017-08-26T01:45:13.625Z,3.90
2017-08-26T01:47:41.491Z,3.13
2017-08-26T01:50:09.364Z,3.40
2017-08-26T01:52:37.160Z,3.57
2017-08-26T01:55:04.931Z,3.33
2017-08-26T01:57:32.761Z,3.70
2017-08-26T02:00:00.622Z,3.70
2017-08-26T02:02:28.395Z,3.30
2017-08-26T02:04:56.258Z,3.17
2017-08-26T02:07:24.121Z,3.63
2017-08-26T02:09:51.962Z,3.40
2017-08-26T02:12:19.693Z,3.70
2017-08-26T02:14:47.341Z,3.80
2017-08-26T02:17:15.057Z,3.27
2017-08-26T02:19:42.794Z,3.53
2017-08-26T02:22:10.480Z,3.23
2017-08-26T02:24:38.201Z,3.33
2017-08-26T02:27:05.864Z,3.30
2017-08-26T02:29:33.533Z,2.50
2017-08-26T02:32:01.839Z,3.00
2017-08-26T02:34:29.520Z,3.00
2017-08-26T02:36:57.400Z,3.00
2017-08-26T02:39:25.167Z,2.63
2017-08-26T02:41:52.929Z,3.53
2017-08-26T02:44:20.637Z,3.50
2017-08-26T02:46:48.341Z,2.80
2017-08-26T02:49:16.048Z,2.77
2017-08-26T02:51:43.723Z,2.67
2017-08-26T02:54:11.554Z,2.63
2017-08-26T02:56:39.419Z,2.97
2017-08-26T02:59:07.185Z,2.70
2017-08-26T03:01:34.889Z,2.23
2017-08-26T03:04:02.724Z,2.53
2017-08-26T03:06:30.581Z,2.87
2017-08-26T03:08:58.346Z,2.57
2017-08-26T03:11:26.210Z,2.97
2017-08-26T03:13:53.977Z,2.33
2017-08-26T03:16:21.845Z,2.43
2017-08-26T03:18:49.713Z,2.60
2017-08-26T03:21:17.418Z,2.83
2017-08-26T03:23:45.246Z,2.60
2017-08-26T03:26:12.978Z,2.80
2017-08-26T03:28:40.771Z,3.17
2017-08-26T03:31:08.463Z,2.97
2017-08-26T03:33:36.302Z,2.93
2017-08-26T03:36:03.971Z,2.90
2017-08-26T03:38:31.660Z,3.60
2017-08-26T03:40:59.398Z,3.60
2017-08-26T03:43:27.089Z,3.17
2017-08-26T03:45:54.775Z,2.80
2017-08-26T03:48:22.476Z,3.03
2017-08-26T03:50:50.243Z,3.07
2017-08-26T03:53:18.006Z,3.20
2017-08-26T03:55:45.873Z,2.80
2017-08-26T03:58:13.743Z,3.23
2017-08-26T04:00:41.510Z,4.13
2017-08-26T04:03:09.372Z,3.50
2017-08-26T04:05:37.139Z,4.00
2017-08-26T04:08:05.006Z,3.37
2017-08-26T04:10:32.769Z,3.20
2017-08-26T04:13:00.535Z,3.67
2017-08-26T04:15:28.402Z,3.53
2017-08-26T04:17:56.271Z,3.10
2017-08-26T04:20:24.138Z,4.07
2017-08-26T04:22:51.900Z,3.00
2017-08-26T04:25:19.665Z,3.73
2017-08-26T04:27:47.432Z,3.23
2017-08-26T04:30:15.195Z,2.93
2017-08-26T04:32:43.062Z,3.13
2017-08-26T04:35:10.836Z,3.23
2017-08-26T04:37:38.588Z,3.70
2017-08-26T04:40:06.455Z,3.53
2017-08-26T04:42:34.223Z,3.67
2017-08-26T04:45:02.088Z,2.70
2017-08-26T04:47:29.853Z,3.43
2017-08-26T04:49:57.565Z,2.67
2017-08-26T04:52:25.220Z,3.30
2017-08-26T04:54:52.945Z,3.20
2017-08-26T04:57:20.809Z,3.40
2017-08-26T04:59:48.486Z,3.40
2017-08-26T05:02:16.193Z,3.30
2017-08-26T05:04:43.860Z,3.87
2017-08-26T05:07:11.569Z,3.60
2017-08-26T05:09:39.219Z,3.10
2017-08-26T05:12:06.991Z,3.80
2017-08-26T05:14:34.716Z,4.03
2017-08-26T05:17:02.401Z,3.80
2017-08-26T05:19:30.117Z,3.87
2017-08-26T05:21:57.953Z,2.97
2017-08-26T05:24:25.815Z,3.97
2017-08-26T05:26:53.578Z,2.90
2017-08-26T05:29:21.367Z,2.27
2017-08-26T05:31:49.093Z,3.10
2017-08-26T05:34:16.771Z,3.20
2017-08-26T05:36:44.488Z,2.77
2017-08-26T05:39:12.183Z,3.10
2017-08-26T05:41:39.962Z,2.50
2017-08-26T05:44:07.831Z,3.17
2017-08-26T05:46:35.497Z,3.60
2017-08-26T05:49:03.216Z,4.27
2017-08-26T05:51:30.906Z,3.57
2017-08-26T05:53:58.685Z,3.80
2017-08-26T05:56:26.452Z,4.40
2017-08-26T05:58:54.213Z,4.13
2017-08-26T06:01:22.083Z,4.20
2017-08-26T06:03:49.958Z,4.70
2017-08-26T06:06:17.728Z,4.20
2017-08-26T06:08:45.584Z,3.93
2017-08-26T06:11:13.448Z,3.90
2017-08-26T06:13:41.274Z,4.17
2017-08-26T06:16:08.931Z,4.53
2017-08-26T06:18:36.742Z,3.00
2017-08-26T06:21:04.555Z,4.10
2017-08-26T06:23:32.376Z,4.60
2017-08-26T06:26:00.241Z,5.23
2017-08-26T06:28:28.109Z,3.80
2017-08-26T06:30:55.977Z,4.37
2017-08-26T06:33:23.743Z,5.20
2017-08-26T06:35:51.608Z,4.97
2017-08-26T06:38:19.286Z,4.20
2017-08-26T06:40:46.991Z,3.93
2017-08-26T06:43:14.715Z,4.47
2017-08-26T06:45:42.500Z,4.20
2017-08-26T06:48:10.185Z,4.57
2017-08-26T06:50:37.994Z,4.37
2017-08-26T06:53:05.861Z,3.80
2017-08-26T06:55:33.624Z,4.43
2017-08-26T06:58:01.501Z,3.80
2017-08-26T07:00:29.285Z,4.07
2017-08-26T07:02:57.017Z,3.90
2017-08-26T07:05:24.901Z,4.20
2017-08-26T07:07:52.755Z,3.30
2017-08-26T07:10:20.552Z,3.23
2017-08-26T07:12:48.389Z,4.20
2017-08-26T07:15:16.225Z,3.60
2017-08-26T07:17:44.135Z,3.50
2017-08-26T07:20:11.889Z,4.03
2017-08-26T07:22:39.586Z,3.20
2017-08-26T07:25:07.266Z,3.70
2017-08-26T07:27:34.993Z,3.23
2017-08-26T07:30:02.693Z,3.10
2017-08-26T07:32:30.507Z,3.47
2017-08-26T07:34:58.373Z,3.73
2017-08-26T07:37:26.243Z,3.40
2017-08-26T07:39:53.963Z,3.50
2017-08-26T07:42:21.678Z,4.03
2017-08-26T07:44:49.383Z,3.87
2017-08-26T07:47:17.080Z,3.63
2017-08-26T07:49:44.960Z,3.50
2017-08-26T07:52:12.640Z,3.70
2017-08-26T07:54:40.498Z,2.93
2017-08-26T07:57:08.176Z,2.60
2017-08-26T07:59:35.931Z,3.67
2017-08-26T08:02:03.634Z,3.10
2017-08-26T08:04:31.352Z,3.17
2017-08-26T08:06:59.066Z,2.80
2017-08-26T08:09:26.747Z,2.87
2017-08-26T08:11:54.458Z,3.47
2017-08-26T08:14:22.121Z,3.40
2017-08-26T08:16:49.804Z,3.10
2017-08-26T08:19:17.472Z,3.30
2017-08-26T08:21:45.178Z,2.70
2017-08-26T08:24:12.866Z,3.40
2017-08-26T08:26:40.711Z,2.77
2017-08-26T08:29:08.476Z,2.07
2017-08-26T08:31:36.348Z,2.50
2017-08-26T08:34:04.111Z,3.00
2017-08-26T08:36:32.026Z,3.07
2017-08-26T08:38:59.807Z,2.23
2017-08-26T08:41:27.511Z,2.93
2017-08-26T08:43:55.214Z,2.20
2017-08-26T08:46:22.901Z,2.60
2017-08-26T08:48:50.643Z,3.93
2017-08-26T08:51:18.325Z,2.80
2017-08-26T08:53:45.983Z,3.20
2017-08-26T08:56:13.693Z,3.30
2017-08-26T08:58:41.362Z,2.77
2017-08-26T09:01:09.068Z,2.60
2017-08-26T09:03:36.786Z,2.87
2017-08-26T09:06:04.552Z,3.30
2017-08-26T09:08:32.236Z,2.47
2017-08-26T09:10:59.925Z,2.50
2017-08-26T09:13:27.673Z,2.80
2017-08-26T09:15:55.342Z,2.37
2017-08-26T09:18:23.048Z,3.20
2017-08-26T09:20:50.714Z,2.40
2017-08-26T09:23:18.443Z,2.30
2017-08-26T09:25:46.128Z,2.33
2017-08-26T09:28:13.846Z,2.90
2017-08-26T09:30:41.551Z,2.40
2017-08-26T09:33:09.250Z,2.17
2017-08-26T09:35:36.940Z,2.50
2017-08-26T09:38:04.683Z,2.40
2017-08-26T09:40:32.415Z,2.40
2017-08-26T09:43:00.094Z,2.10
2017-08-26T09:45:27.854Z,2.40
2017-08-26T09:47:55.540Z,3.77
2017-08-26T09:50:23.229Z,2.70
2017-08-26T09:52:50.906Z,2.57
2017-08-26T09:55:18.650Z,2.50
2017-08-26T09:57:46.324Z,4.40
2017-08-26T10:00:14.046Z,2.70
2017-08-26T10:02:41.736Z,2.70
2017-08-26T10:05:09.408Z,2.50
2017-08-26T10:07:37.116Z,2.60
2017-08-26T10:10:04.886Z,2.40
2017-08-26T10:12:32.582Z,2.20
2017-08-26T10:15:00.260Z,2.30
2017-08-26T10:17:27.988Z,2.10
2017-08-26T10:19:55.649Z,2.10
2017-08-26T10:22:23.363Z,2.00
2017-08-26T10:24:51.051Z,2.50
2017-08-26T10:27:18.773Z,2.70
2017-08-26T10:29:46.440Z,2.90
2017-08-26T10:32:14.143Z,2.80
2017-08-26T10:34:41.858Z,2.13
2017-08-26T10:37:09.522Z,2.40
2017-08-26T10:39:37.244Z,2.33
2017-08-26T10:42:04.926Z,2.10
2017-08-26T10:44:32.637Z,2.57
2017-08-26T10:47:00.439Z,2.00
2017-08-26T10:49:28.403Z,2.00
2017-08-26T10:51:56.171Z,2.20
2017-08-26T10:54:24.036Z,2.50
2017-08-26T10:56:51.800Z,2.30
2017-08-26T10:59:19.507Z,2.43
2017-08-26T11:01:47.330Z,2.40
2017-08-26T11:04:15.095Z,2.73
2017-08-26T11:06:42.965Z,1.93
2017-08-26T11:09:10.729Z,2.00
2017-08-26T11:11:38.605Z,2.00
2017-08-26T11:14:06.296Z,2.13
2017-08-26T11:16:34.008Z,2.43
2017-08-26T11:19:01.783Z,1.90
2017-08-26T11:21:29.502Z,2.10
2017-08-26T11:23:57.162Z,2.00
2017-08-26T11:26:24.828Z,2.33
2017-08-26T11:28:52.539Z,2.10
2017-08-26T11:31:20.207Z,2.20
2017-08-26T11:33:47.917Z,2.50
2017-08-26T11:36:15.567Z,2.20
2017-08-26T11:38:43.284Z,2.90
2017-08-26T11:41:10.962Z,2.70
2017-08-26T11:43:38.690Z,2.40
2017-08-26T11:46:06.396Z,2.60
2017-08-26T11:48:34.104Z,2.83
2017-08-26T11:51:01.878Z,3.10
2017-08-26T11:53:29.630Z,2.37
2017-08-26T11:55:57.464Z,3.30
2017-08-26T11:58:25.140Z,3.00
2017-08-26T12:00:52.852Z,2.77
2017-08-26T12:03:20.645Z,3.33
2017-08-26T12:05:48.356Z,2.77
2017-08-26T12:08:16.013Z,3.40
2017-08-26T12:10:43.751Z,3.10
2017-08-26T12:13:11.458Z,2.93
2017-08-26T12:15:39.177Z,3.00
2017-08-26T12:18:06.856Z,3.57
2017-08-26T12:20:34.540Z,3.77
2017-08-26T12:23:02.333Z,3.23
2017-08-26T12:25:30.067Z,3.43
2017-08-26T12:27:57.775Z,4.47
2017-08-26T12:30:25.446Z,4.03
2017-08-26T12:32:53.125Z,4.20
2017-08-26T12:35:20.787Z,4.70
2017-08-26T12:37:48.477Z,3.40
2017-08-26T12:40:16.168Z,4.10
2017-08-26T12:42:43.880Z,3.47
2017-08-26T12:45:11.551Z,4.10
2017-08-26T12:47:39.240Z,3.70
2017-08-26T12:50:06.972Z,3.90
2017-08-26T12:52:34.671Z,3.77
2017-08-26T12:55:02.398Z,4.60
2017-08-26T12:57:30.083Z,5.07
2017-08-26T12:59:57.889Z,4.57
2017-08-26T13:02:25.729Z,4.03
2017-08-26T13:04:53.465Z,3.60
2017-08-26T13:07:21.146Z,3.83
2017-08-26T13:09:48.816Z,4.67
2017-08-26T13:12:16.515Z,4.30
2017-08-26T13:14:44.206Z,3.63
2017-08-26T13:17:11.909Z,3.97
2017-08-26T13:19:39.555Z,3.90
2017-08-26T13:22:07.261Z,4.23
2017-08-26T13:24:34.900Z,3.90
2017-08-26T13:27:02.543Z,3.93
2017-08-26T13:29:30.246Z,3.90
2017-08-26T13:31:57.907Z,4.30
2017-08-26T13:34:25.612Z,4.40
2017-08-26T13:36:53.258Z,4.33
2017-08-26T13:39:20.929Z,4.93
2017-08-26T13:41:48.592Z,4.40
2017-08-26T13:44:16.301Z,4.60
2017-08-26T13:46:43.930Z,4.50
2017-08-26T13:49:11.758Z,4.43
2017-08-26T13:51:39.439Z,5.20
2017-08-26T13:54:07.098Z,5.27
2017-08-26T13:56:34.779Z,4.90
2017-08-26T13:59:02.433Z,5.40
2017-08-26T14:01:30.269Z,4.93
2017-08-26T14:03:58.030Z,4.70
2017-08-26T14:06:25.728Z,5.23
2017-08-26T14:08:53.370Z,4.63
2017-08-26T14:11:21.049Z,3.97
2017-08-26T14:13:48.742Z,4.73
2017-08-26T14:16:16.424Z,4.63
2017-08-26T14:18:44.102Z,4.87
2017-08-26T14:21:11.774Z,6.60
2017-08-26T14:23:39.453Z,5.40
2017-08-26T14:26:07.120Z,4.90
2017-08-26T14:28:34.813Z,5.90
2017-08-26T14:31:02.464Z,5.10
2017-08-26T14:33:30.102Z,5.90
2017-08-26T14:35:57.775Z,6.37
2017-08-26T14:38:25.441Z,5.50
2017-08-26T14:40:53.148Z,5.93
2017-08-26T14:43:20.821Z,5.13
2017-08-26T14:45:48.539Z,5.90
2017-08-26T14:48:16.184Z,5.67
2017-08-26T14:50:43.858Z,6.10
2017-08-26T14:53:11.512Z,7.10
2017-08-26T14:55:39.221Z,6.30
2017-08-26T14:58:06.891Z,6.07
2017-08-26T15:00:34.591Z,6.20
2017-08-26T15:03:02.269Z,6.70
2017-08-26T15:05:29.973Z,5.27
2017-08-26T15:07:57.664Z,5.97
2017-08-26T15:10:25.431Z,7.10
2017-08-26T15:12:53.095Z,7.07
2017-08-26T15:15:20.881Z,6.17
2017-08-26T15:17:48.537Z,5.13
2017-08-26T15:20:16.263Z,5.90
2017-08-26T15:22:43.952Z,6.80
2017-08-26T15:25:11.616Z,6.13
2017-08-26T15:27:39.283Z,5.90
2017-08-26T15:30:06.945Z,5.60
2017-08-26T15:32:34.626Z,7.50
2017-08-26T15:35:02.291Z,7.30
2017-08-26T15:37:29.973Z,7.23
2017-08-26T15:39:57.653Z,6.67
2017-08-26T15:42:25.341Z,6.30
2017-08-26T15:44:52.992Z,6.47
2017-08-26T15:47:20.633Z,6.20
2017-08-26T15:49:48.436Z,6.60
2017-08-26T15:52:16.125Z,6.50
2017-08-26T15:54:43.817Z,7.27
2017-08-26T15:57:11.521Z,6.60
2017-08-26T15:59:39.206Z,7.10
2017-08-26T16:02:06.851Z,6.87
2017-08-26T16:04:34.520Z,6.53
2017-08-26T16:07:02.194Z,6.53
2017-08-26T16:09:29.864Z,6.63
2017-08-26T16:11:57.566Z,6.80
2017-08-26T16:14:25.226Z,7.07
2017-08-26T16:16:52.939Z,5.63
2017-08-26T16:19:20.738Z,7.20
2017-08-26T16:21:49.364Z,6.87
2017-08-26T16:24:17.139Z,6.53
2017-08-26T16:26:44.859Z,6.60
2017-08-26T16:29:12.696Z,6.40
2017-08-26T16:31:40.544Z,5.80
2017-08-26T16:34:08.438Z,6.50
2017-08-26T16:36:36.283Z,7.20
2017-08-26T16:39:04.226Z,6.50
2017-08-26T16:41:32.184Z,6.07
2017-08-26T16:43:59.953Z,7.20
2017-08-26T16:46:30.211Z,6.17
2017-08-26T16:48:58.118Z,7.20
2017-08-26T16:51:25.826Z,6.60
2017-08-26T16:53:53.609Z,6.77
2017-08-26T16:56:21.355Z,7.87
2017-08-26T16:58:49.116Z,7.07
2017-08-26T17:01:16.841Z,6.63
2017-08-26T17:03:44.543Z,6.43
2017-08-26T17:06:12.404Z,6.80
2017-08-26T17:08:40.160Z,6.40
2017-08-26T17:11:07.873Z,8.07
2017-08-26T17:13:35.663Z,7.90
2017-08-26T17:16:03.349Z,9.10
2017-08-26T17:18:31.115Z,7.30
2017-08-26T17:20:58.909Z,7.20
2017-08-26T17:23:26.667Z,6.73
2017-08-26T17:25:54.434Z,6.67
2017-08-26T17:28:22.195Z,7.20
2017-08-26T17:30:49.864Z,7.40
2017-08-26T17:33:17.618Z,7.60
2017-08-26T17:35:45.423Z,7.00
2017-08-26T17:38:13.360Z,7.87
2017-08-26T17:40:41.118Z,7.97
2017-08-26T17:43:08.838Z,6.47
2017-08-26T17:45:36.566Z,7.07
2017-08-26T17:48:04.271Z,7.60
2017-08-26T17:50:32.052Z,7.80
2017-08-26T17:52:59.821Z,7.10
2017-08-26T17:55:27.588Z,7.63
2017-08-26T17:57:55.276Z,7.47
2017-08-26T18:00:22.972Z,6.40
2017-08-26T18:02:50.736Z,7.83
2017-08-26T18:05:18.440Z,7.90
2017-08-26T18:07:46.241Z,8.40
2017-08-26T18:10:14.159Z,9.00
2017-08-26T18:12:41.970Z,7.87
2017-08-26T18:15:09.731Z,7.60
2017-08-26T18:17:37.515Z,8.50
2017-08-26T18:20:05.260Z,8.00
2017-08-26T18:22:33.104Z,8.30
2017-08-26T18:25:00.927Z,8.10
2017-08-26T18:27:28.716Z,8.40
2017-08-26T18:29:56.450Z,7.80
2017-08-26T18:32:24.146Z,9.00
2017-08-26T18:34:51.896Z,7.90
2017-08-26T18:37:19.646Z,8.43
2017-08-26T18:39:47.485Z,9.07
2017-08-26T18:42:15.233Z,9.23
2017-08-26T18:44:42.987Z,10.17
2017-08-26T18:47:10.677Z,9.00
2017-08-26T18:49:38.494Z,8.33
2017-08-26T18:52:08.294Z,9.33
2017-08-26T18:54:36.233Z,10.70
2017-08-26T18:57:03.989Z,11.27
2017-08-26T18:59:31.777Z,9.57
2017-08-26T19:01:59.519Z,8.37
2017-08-26T19:04:27.215Z,8.53
2017-08-26T19:06:55.048Z,8.67
2017-08-26T19:09:22.764Z,9.60
2017-08-26T19:11:50.502Z,9.90
2017-08-26T19:14:18.274Z,8.43
2017-08-26T19:16:46.005Z,7.80
2017-08-26T19:19:13.781Z,8.30
2017-08-26T19:21:41.516Z,8.77
2017-08-26T19:24:09.271Z,10.77
2017-08-26T19:26:36.976Z,11.20
2017-08-26T19:29:04.684Z,11.50
2017-08-26T19:31:32.417Z,11.60
2017-08-26T19:34:00.183Z,11.87
2017-08-26T19:36:27.929Z,10.53
2017-08-26T19:38:55.658Z,12.00
2017-08-26T19:41:23.418Z,11.30
2017-08-26T19:43:51.130Z,11.10
2017-08-26T19:46:18.878Z,12.50
2017-08-26T19:48:46.644Z,12.53
2017-08-26T19:51:14.417Z,13.27
2017-08-26T19:53:42.270Z,12.43
2017-08-26T19:56:09.986Z,11.87
2017-08-26T19:58:37.735Z,12.40
2017-08-26T20:01:06.145Z,13.57
2017-08-26T20:03:33.936Z,14.27
2017-08-26T20:06:01.703Z,14.10
2017-08-26T20:08:29.498Z,13.60
2017-08-26T20:10:57.333Z,13.20
2017-08-26T20:13:25.033Z,12.33
2017-08-26T20:15:52.706Z,12.60
2017-08-26T20:18:20.539Z,11.27
2017-08-26T20:20:48.394Z,13.10
2017-08-26T20:23:16.096Z,12.47
2017-08-26T20:25:43.838Z,13.23
2017-08-26T20:28:11.490Z,12.27
2017-08-26T20:30:39.166Z,11.30
2017-08-26T20:33:06.900Z,12.73
2017-08-26T20:35:34.588Z,12.43
2017-08-26T20:38:02.382Z,12.20
2017-08-26T20:40:30.105Z,12.60
2017-08-26T20:42:57.807Z,12.57
2017-08-26T20:45:25.524Z,11.53
2017-08-26T20:47:53.219Z,10.70
2017-08-26T20:50:20.884Z,12.87
2017-08-26T20:52:48.614Z,13.33
2017-08-26T20:55:16.285Z,13.13
2017-08-26T20:57:43.952Z,12.23
2017-08-26T21:00:11.646Z,12.23
2017-08-26T21:02:39.321Z,12.53
2017-08-26T21:05:07.028Z,12.60
2017-08-26T21:07:34.689Z,13.17
2017-08-26T21:10:02.404Z,12.50
2017-08-26T21:12:30.101Z,12.43
2017-08-26T21:14:57.825Z,9.70
2017-08-26T21:17:25.490Z,12.23
2017-08-26T21:19:53.204Z,11.23
2017-08-26T21:22:20.898Z,12.23
2017-08-26T21:24:48.569Z,9.90
2017-08-26T21:27:16.287Z,11.77
2017-08-26T21:29:43.960Z,9.13
2017-08-26T21:32:11.651Z,11.33
2017-08-26T21:34:39.319Z,12.90
2017-08-26T21:37:07.053Z,9.60
2017-08-26T21:39:34.718Z,12.13
2017-08-26T21:42:03.248Z,11.03
2017-08-26T21:44:30.997Z,13.50
2017-08-26T21:46:58.689Z,11.47
2017-08-26T21:49:26.372Z,9.93
2017-08-26T21:51:54.032Z,12.37
2017-08-26T21:54:21.719Z,14.07
2017-08-26T21:56:49.395Z,9.37
2017-08-26T21:59:17.085Z,12.07
2017-08-26T22:01:45.557Z,11.93
2017-08-26T22:04:13.284Z,9.20
2017-08-26T22:06:40.981Z,13.20
2017-08-26T22:09:08.657Z,12.00
2017-08-26T22:11:36.354Z,13.40
2017-08-26T22:14:04.075Z,14.53
2017-08-26T22:16:31.813Z,14.37
2017-08-26T22:18:59.488Z,11.83
2017-08-26T22:21:27.227Z,10.60
2017-08-26T22:23:54.925Z,12.13
2017-08-26T22:26:22.591Z,11.00
2017-08-26T22:28:50.295Z,12.33
2017-08-26T22:31:17.963Z,14.13
2017-08-26T22:33:45.672Z,13.97
2017-08-26T22:36:13.363Z,12.30
2017-08-26T22:38:41.026Z,14.10
2017-08-26T22:41:08.716Z,12.30
2017-08-26T22:43:36.408Z,12.53
2017-08-26T22:46:04.115Z,12.63
2017-08-26T22:48:31.821Z,14.97
2017-08-26T22:50:59.479Z,11.90
2017-08-26T22:53:27.183Z,10.10
2017-08-26T22:55:54.862Z,9.60
2017-08-26T22:58:22.619Z,9.63
2017-08-26T23:00:50.271Z,10.70
2017-08-26T23:03:17.949Z,10.67
2017-08-26T23:05:45.669Z,9.60
2017-08-26T23:08:13.376Z,10.50
2017-08-26T23:10:41.083Z,9.50
2017-08-26T23:13:08.751Z,10.70
2017-08-26T23:15:36.460Z,13.97
2017-08-26T23:18:04.161Z,9.40
2017-08-26T23:20:31.844Z,10.20
2017-08-26T23:22:59.581Z,10.50
2017-08-26T23:25:27.252Z,11.23
2017-08-26T23:27:54.948Z,11.73
2017-08-26T23:30:22.602Z,11.87
2017-08-26T23:32:50.297Z,10.47
2017-08-26T23:35:17.964Z,11.27
2017-08-26T23:37:45.680Z,11.70
2017-08-26T23:40:13.343Z,11.00
2017-08-26T23:42:41.004Z,14.70
2017-08-26T23:45:08.706Z,14.00
2017-08-26T23:47:36.382Z,13.63
2017-08-26T23:50:04.062Z,13.00
2017-08-26T23:52:31.719Z,11.77
2017-08-26T23:54:59.422Z,11.33
2017-08-26T23:57:27.120Z,10.97
2017-08-26T23:59:54.819Z,11.37
